createdAt,value
2023-03-02T00:01:02.478Z,82.10
2023-03-02T00:03:08.863Z,81.80
2023-03-02T00:05:14.494Z,82.20
2023-03-02T00:07:22.650Z,82.20
2023-03-02T00:09:27.685Z,81.80
2023-03-02T00:11:35.474Z,82.30
2023-03-02T00:13:41.462Z,82.70
2023-03-02T00:15:46.377Z,82.80
2023-03-02T00:17:53.874Z,82.70
2023-03-02T00:20:07.300Z,81.90
2023-03-02T00:22:12.313Z,82.70
2023-03-02T00:24:17.485Z,82.50
2023-03-02T00:26:23.202Z,82.60
2023-03-02T00:28:28.650Z,82.80
2023-03-02T00:30:33.560Z,82.90
2023-03-02T00:32:38.507Z,82.80
2023-03-02T00:34:46.010Z,82.20
2023-03-02T00:36:51.721Z,82.40
2023-03-02T00:38:57.475Z,82.00
2023-03-02T00:41:02.429Z,83.20
2023-03-02T00:43:07.620Z,83.30
2023-03-02T00:45:13.267Z,83.90
2023-03-02T00:47:18.624Z,83.20
2023-03-02T00:49:24.151Z,83.50
2023-03-02T00:51:32.021Z,83.40
2023-03-02T00:53:38.447Z,83.90
2023-03-02T00:55:43.769Z,84.20
2023-03-02T00:57:55.231Z,84.50
2023-03-02T01:00:05.804Z,84.10
2023-03-02T01:04:22.675Z,83.70
2023-03-02T01:06:27.828Z,84.00
2023-03-02T01:08:38.087Z,84.50
2023-03-02T01:10:44.285Z,84.90
2023-03-02T01:12:49.154Z,84.70
2023-03-02T01:14:54.797Z,84.50
2023-03-02T01:17:00.403Z,84.90
2023-03-02T01:19:05.769Z,83.30
2023-03-02T01:21:15.171Z,83.30
2023-03-02T01:25:29.440Z,84.70
2023-03-02T01:27:35.307Z,85.20
2023-03-02T01:29:41.096Z,84.20
2023-03-02T01:31:46.370Z,84.40
2023-03-02T01:33:55.340Z,85.30
2023-03-02T01:36:00.275Z,84.30
2023-03-02T01:38:06.045Z,84.20
2023-03-02T01:40:15.846Z,84.30
2023-03-02T01:42:23.518Z,84.10
2023-03-02T01:44:45.194Z,84.40
2023-03-02T01:46:50.104Z,84.50
2023-03-02T01:49:01.149Z,84.00
2023-03-02T01:51:31.125Z,84.90
2023-03-02T01:53:46.745Z,83.90
2023-03-02T01:55:53.198Z,83.90
2023-03-02T01:58:02.075Z,84.10
2023-03-02T02:00:11.677Z,83.70
2023-03-02T02:02:19.793Z,83.50
2023-03-02T02:04:25.993Z,83.00
2023-03-02T02:06:37.863Z,83.10
2023-03-02T02:08:43.174Z,83.10
2023-03-02T02:10:49.547Z,83.00
2023-03-02T02:12:54.404Z,84.00
2023-03-02T02:15:03.219Z,84.20
2023-03-02T02:17:08.782Z,84.40
2023-03-02T02:19:29.556Z,84.30
2023-03-02T02:21:34.873Z,84.20
2023-03-02T02:23:49.418Z,84.30
2023-03-02T02:26:29.003Z,84.70
2023-03-02T02:28:38.897Z,85.20
2023-03-02T02:30:45.383Z,84.90
2023-03-02T02:32:52.263Z,84.80
2023-03-02T02:35:05.553Z,84.80
2023-03-02T02:37:17.688Z,84.90
2023-03-02T02:39:32.909Z,85.30
2023-03-02T02:41:43.752Z,85.30
2023-03-02T02:43:49.405Z,85.80
2023-03-02T02:45:59.151Z,85.60
2023-03-02T02:48:04.370Z,85.20
2023-03-02T02:50:19.753Z,85.60
2023-03-02T02:52:28.744Z,86.20
2023-03-02T02:54:36.471Z,85.50
2023-03-02T02:56:45.881Z,85.80
2023-03-02T02:58:54.678Z,85.70
2023-03-02T03:01:01.741Z,85.50
2023-03-02T03:03:31.960Z,85.70
2023-03-02T03:05:39.522Z,85.70
2023-03-02T03:07:45.305Z,86.30
2023-03-02T03:10:00.775Z,86.60
2023-03-02T03:12:18.904Z,86.10
2023-03-02T03:14:30.171Z,86.50
2023-03-02T03:16:38.555Z,86.00
2023-03-02T03:18:46.351Z,85.20
2023-03-02T03:20:52.446Z,85.60
2023-03-02T03:22:59.380Z,85.60
2023-03-02T03:25:05.689Z,85.30
2023-03-02T03:27:17.669Z,86.20
2023-03-02T03:29:26.407Z,85.90
2023-03-02T03:31:35.467Z,85.70
2023-03-02T03:33:41.137Z,85.80
2023-03-02T03:35:46.516Z,86.30
2023-03-02T03:37:51.873Z,86.50
2023-03-02T03:39:58.493Z,86.50
2023-03-02T03:42:04.079Z,86.20
2023-03-02T03:44:12.434Z,85.80
2023-03-02T03:46:21.652Z,85.90
2023-03-02T03:48:27.295Z,85.60
2023-03-02T03:50:33.082Z,85.60
2023-03-02T03:52:38.323Z,86.80
2023-03-02T03:54:54.177Z,86.10
2023-03-02T03:56:59.544Z,86.00
2023-03-02T03:59:08.941Z,86.10
2023-03-02T04:01:22.425Z,86.50
2023-03-02T04:03:29.492Z,85.70
2023-03-02T04:05:35.064Z,86.40
2023-03-02T04:07:43.667Z,86.30
2023-03-02T04:09:49.379Z,86.20
2023-03-02T04:11:57.947Z,86.80
2023-03-02T04:14:04.589Z,87.10
2023-03-02T04:16:10.389Z,87.30
2023-03-02T04:18:18.526Z,86.70
2023-03-02T04:20:25.488Z,86.90
2023-03-02T04:22:32.435Z,87.40
2023-03-02T04:24:37.846Z,87.10
2023-03-02T04:28:52.713Z,87.10
2023-03-02T04:31:00.352Z,87.40
2023-03-02T04:33:05.503Z,87.60
2023-03-02T04:35:16.004Z,87.10
2023-03-02T04:37:21.015Z,87.10
2023-03-02T04:39:27.379Z,88.10
2023-03-02T04:41:32.839Z,87.60
2023-03-02T04:43:37.746Z,87.70
2023-03-02T04:45:43.395Z,86.80
2023-03-02T04:47:48.786Z,87.20
2023-03-02T04:49:56.656Z,86.80
2023-03-02T04:52:04.521Z,86.60
2023-03-02T04:54:15.438Z,85.80
2023-03-02T04:56:21.237Z,85.60
2023-03-02T04:58:26.115Z,84.80
2023-03-02T05:00:34.395Z,85.50
2023-03-02T05:02:39.752Z,85.00
2023-03-02T05:04:48.380Z,85.40
2023-03-02T05:06:53.645Z,84.60
2023-03-02T05:09:02.086Z,84.40
2023-03-02T05:11:09.091Z,84.60
2023-03-02T05:13:14.104Z,83.90
2023-03-02T05:15:19.488Z,82.40
2023-03-02T05:17:24.371Z,82.30
2023-03-02T05:19:30.575Z,82.80
2023-03-02T05:21:35.696Z,82.40
2023-03-02T05:23:40.878Z,82.10
2023-03-02T05:25:48.328Z,81.60
2023-03-02T05:27:54.746Z,81.10
2023-03-02T05:29:59.661Z,81.10
2023-03-02T05:32:04.621Z,81.20
2023-03-02T05:34:13.892Z,81.50
2023-03-02T05:36:20.731Z,82.00
2023-03-02T05:38:27.561Z,82.40
2023-03-02T05:40:32.517Z,82.30
2023-03-02T05:42:40.511Z,82.30
2023-03-02T05:44:46.370Z,82.50
2023-03-02T05:46:51.627Z,81.60
2023-03-02T05:48:56.738Z,81.60
2023-03-02T05:51:02.010Z,81.60
2023-03-02T05:53:07.379Z,82.30
2023-03-02T05:55:13.715Z,81.70
2023-03-02T05:57:18.607Z,81.80
2023-03-02T05:59:26.521Z,82.00
2023-03-02T06:01:31.757Z,81.70
2023-03-02T06:03:36.795Z,82.10
2023-03-02T06:05:42.512Z,81.40
2023-03-02T06:07:48.359Z,81.30
2023-03-02T06:09:53.433Z,81.50
2023-03-02T06:11:59.375Z,81.30
2023-03-02T06:16:13.907Z,81.30
2023-03-02T06:18:18.852Z,81.10
2023-03-02T06:20:24.200Z,81.30
2023-03-02T06:22:29.594Z,80.80
2023-03-02T06:24:34.518Z,80.80
2023-03-02T06:26:39.964Z,80.80
2023-03-02T06:28:52.594Z,80.50
2023-03-02T06:31:03.669Z,80.40
2023-03-02T06:33:11.412Z,79.90
2023-03-02T06:35:17.884Z,79.00
2023-03-02T06:37:24.152Z,78.70
2023-03-02T06:39:30.150Z,79.10
2023-03-02T06:41:36.014Z,78.50
2023-03-02T06:45:51.005Z,78.90
2023-03-02T06:47:56.089Z,79.40
2023-03-02T06:50:04.664Z,79.70
2023-03-02T06:52:11.029Z,79.70
2023-03-02T06:54:17.688Z,79.50
2023-03-02T06:56:23.221Z,79.00
2023-03-02T06:58:31.283Z,79.60
2023-03-02T07:00:37.084Z,79.80
2023-03-02T07:02:42.477Z,79.10
2023-03-02T07:04:47.429Z,79.10
2023-03-02T07:06:54.930Z,79.00
2023-03-02T07:09:00.135Z,79.10
2023-03-02T07:11:10.696Z,79.70
2023-03-02T07:13:16.642Z,79.20
2023-03-02T07:15:22.988Z,78.60
2023-03-02T07:17:29.125Z,77.10
2023-03-02T07:19:34.044Z,76.40
2023-03-02T07:21:39.501Z,76.20
2023-03-02T07:23:46.985Z,75.90
2023-03-02T07:25:55.099Z,75.70
2023-03-02T07:28:00.885Z,75.10
2023-03-02T07:30:10.485Z,75.30
2023-03-02T07:32:16.856Z,74.60
2023-03-02T07:34:21.793Z,75.50
2023-03-02T07:36:26.936Z,74.00
2023-03-02T07:38:32.539Z,73.70
2023-03-02T07:40:43.372Z,72.30
2023-03-02T07:42:49.794Z,71.80
2023-03-02T07:44:56.308Z,71.40
2023-03-02T07:47:01.341Z,71.20
2023-03-02T07:49:07.099Z,71.10
2023-03-02T07:51:12.061Z,70.80
2023-03-02T07:53:17.899Z,71.00
2023-03-02T07:55:22.889Z,70.50
2023-03-02T07:57:30.392Z,70.50
2023-03-02T07:59:35.308Z,70.80
2023-03-02T08:01:40.276Z,69.50
2023-03-02T08:03:45.184Z,69.10
2023-03-02T08:05:50.073Z,69.20
2023-03-02T08:07:55.463Z,68.20
2023-03-02T08:10:00.988Z,68.30
2023-03-02T08:12:07.694Z,69.10
2023-03-02T08:14:15.205Z,69.40
2023-03-02T08:16:20.664Z,68.70
2023-03-02T08:18:25.786Z,67.40
2023-03-02T08:20:30.791Z,68.20
2023-03-02T08:22:35.710Z,67.20
2023-03-02T08:24:41.842Z,66.70
2023-03-02T08:26:47.214Z,66.90
2023-03-02T08:28:52.179Z,67.10
2023-03-02T08:31:04.518Z,66.60
2023-03-02T08:33:09.710Z,67.90
2023-03-02T08:35:15.515Z,66.10
2023-03-02T08:37:20.853Z,65.90
2023-03-02T08:39:30.251Z,65.40
2023-03-02T08:41:35.684Z,64.50
2023-03-02T08:43:41.003Z,63.50
2023-03-02T08:45:46.055Z,63.90
2023-03-02T08:47:56.862Z,63.70
2023-03-02T08:50:01.832Z,63.50
2023-03-02T08:52:07.278Z,64.20
2023-03-02T08:54:14.180Z,62.70
2023-03-02T08:56:21.578Z,62.60
2023-03-02T08:58:26.497Z,62.30
2023-03-02T09:00:31.819Z,63.30
2023-03-02T09:02:36.734Z,60.60
2023-03-02T09:04:44.266Z,61.90
2023-03-02T09:06:49.297Z,61.70
2023-03-02T09:08:54.766Z,61.00
2023-03-02T09:10:59.666Z,58.70
2023-03-02T09:13:06.843Z,58.70
2023-03-02T09:15:13.675Z,59.80
2023-03-02T09:17:18.787Z,59.80
2023-03-02T09:19:24.067Z,59.10
2023-03-02T09:21:31.957Z,58.20
2023-03-02T09:23:38.200Z,57.70
2023-03-02T09:25:45.275Z,58.00
2023-03-02T09:27:51.658Z,58.30
2023-03-02T09:29:56.611Z,58.80
2023-03-02T09:32:02.283Z,58.40
2023-03-02T09:34:07.732Z,58.80
2023-03-02T09:36:24.246Z,59.00
2023-03-02T09:38:31.727Z,58.80
2023-03-02T09:40:46.425Z,56.80
2023-03-02T09:43:21.593Z,57.50
2023-03-02T09:46:17.108Z,57.50
2023-03-02T09:48:38.593Z,56.50
2023-03-02T09:50:58.345Z,56.00
2023-03-02T09:53:38.591Z,55.20
2023-03-02T09:55:46.135Z,55.70
2023-03-02T09:57:55.245Z,56.20
2023-03-02T10:00:18.332Z,55.80
2023-03-02T10:02:31.298Z,54.70
2023-03-02T10:04:47.604Z,54.20
2023-03-02T10:07:02.368Z,54.90
2023-03-02T10:09:13.657Z,53.40
2023-03-02T10:11:29.584Z,55.50
2023-03-02T10:13:45.967Z,54.40
2023-03-02T10:16:12.247Z,53.00
2023-03-02T10:18:25.113Z,55.20
2023-03-02T10:20:36.397Z,55.70
2023-03-02T10:22:50.480Z,53.30
2023-03-02T10:25:10.857Z,52.20
2023-03-02T10:27:26.219Z,53.90
2023-03-02T10:29:46.512Z,52.50
2023-03-02T10:31:58.725Z,52.90
2023-03-02T10:34:05.090Z,51.00
2023-03-02T10:36:24.736Z,52.20
2023-03-02T10:38:32.199Z,50.90
2023-03-02T10:40:47.341Z,51.80
2023-03-02T10:42:52.563Z,50.80
2023-03-02T10:45:04.148Z,50.60
2023-03-02T10:47:10.994Z,51.00
2023-03-02T10:49:31.713Z,49.40
2023-03-02T10:51:37.896Z,50.00
2023-03-02T10:53:42.750Z,50.50
2023-03-02T10:55:53.952Z,49.60
2023-03-02T10:58:06.486Z,48.90
2023-03-02T11:00:24.342Z,48.80
2023-03-02T11:02:30.531Z,50.40
2023-03-02T11:04:35.464Z,46.90
2023-03-02T11:06:40.365Z,48.20
2023-03-02T11:08:45.257Z,47.90
2023-03-02T11:11:01.054Z,47.10
2023-03-02T11:13:20.592Z,48.90
2023-03-02T11:15:30.086Z,48.80
2023-03-02T11:17:39.384Z,48.40
2023-03-02T11:19:44.901Z,50.00
2023-03-02T11:21:59.408Z,47.10
2023-03-02T11:24:14.105Z,49.20
2023-03-02T11:26:26.526Z,46.30
2023-03-02T11:28:46.549Z,49.30
2023-03-02T11:30:54.109Z,46.90
2023-03-02T11:33:05.139Z,47.40
2023-03-02T11:35:17.540Z,47.20
2023-03-02T11:37:26.292Z,47.00
2023-03-02T11:39:54.629Z,49.20
2023-03-02T11:42:03.086Z,48.50
2023-03-02T11:44:18.974Z,49.30
2023-03-02T11:46:30.616Z,46.80
2023-03-02T11:48:41.999Z,47.60
2023-03-02T11:50:59.921Z,46.90
2023-03-02T11:53:10.602Z,48.10
2023-03-02T11:55:23.349Z,48.30
2023-03-02T11:57:38.589Z,47.60
2023-03-02T11:59:44.413Z,47.80
2023-03-02T12:01:54.088Z,47.60
2023-03-02T12:04:11.925Z,45.00
2023-03-02T12:06:38.567Z,46.60
2023-03-02T12:08:46.018Z,44.50
2023-03-02T12:11:01.968Z,46.50
2023-03-02T12:13:20.534Z,45.80
2023-03-02T12:15:44.374Z,45.50
2023-03-02T12:17:49.280Z,45.40
2023-03-02T12:19:57.440Z,47.70
2023-03-02T12:22:09.074Z,45.20
2023-03-02T12:24:28.480Z,47.30
2023-03-02T12:26:38.955Z,46.30
2023-03-02T12:28:46.421Z,45.40
2023-03-02T12:31:05.116Z,44.90
2023-03-02T12:33:23.334Z,45.00
2023-03-02T12:35:29.064Z,46.00
2023-03-02T12:37:45.564Z,46.60
2023-03-02T12:40:28.041Z,45.30
2023-03-02T12:43:03.420Z,47.40
2023-03-02T12:45:27.082Z,47.80
2023-03-02T12:47:33.205Z,46.80
2023-03-02T12:49:53.959Z,44.90
2023-03-02T12:52:01.231Z,46.40
2023-03-02T12:54:08.450Z,44.20
2023-03-02T12:56:23.535Z,46.10
2023-03-02T12:58:32.912Z,45.40
2023-03-02T13:00:40.403Z,45.30
2023-03-02T13:02:50.857Z,44.80
2023-03-02T13:04:57.918Z,45.20
2023-03-02T13:07:03.193Z,44.20
2023-03-02T13:09:08.261Z,43.70
2023-03-02T13:11:14.082Z,45.40
2023-03-02T13:13:21.775Z,44.60
2023-03-02T13:15:26.886Z,44.60
2023-03-02T13:17:35.987Z,44.10
2023-03-02T13:19:41.162Z,42.40
2023-03-02T13:21:46.532Z,42.00
2023-03-02T13:23:54.792Z,41.40
2023-03-02T13:26:02.518Z,40.20
2023-03-02T13:28:10.072Z,39.40
2023-03-02T13:30:26.582Z,39.70
2023-03-02T13:32:43.472Z,41.40
2023-03-02T13:34:51.796Z,40.60
2023-03-02T13:36:57.620Z,39.90
2023-03-02T13:39:03.796Z,39.90
2023-03-02T13:41:10.634Z,40.30
2023-03-02T13:43:36.246Z,39.90
2023-03-02T13:45:42.187Z,38.00
2023-03-02T13:47:49.905Z,37.60
2023-03-02T13:49:55.036Z,39.00
2023-03-02T13:52:08.145Z,38.60
2023-03-02T13:54:24.461Z,38.60
2023-03-02T13:56:33.552Z,39.90
2023-03-02T13:58:41.230Z,38.80
2023-03-02T14:00:46.303Z,40.20
2023-03-02T14:02:53.789Z,37.10
2023-03-02T14:04:59.797Z,37.20
2023-03-02T14:07:04.769Z,37.60
2023-03-02T14:09:09.647Z,37.80
2023-03-02T14:11:16.569Z,36.70
2023-03-02T14:15:59.998Z,35.90
2023-03-02T14:18:19.068Z,36.40
2023-03-02T14:20:24.030Z,38.40
2023-03-02T14:22:31.982Z,37.50
2023-03-02T14:24:37.476Z,36.20
2023-03-02T14:26:46.372Z,36.30
2023-03-02T14:29:04.580Z,34.00
2023-03-02T14:31:12.745Z,35.70
2023-03-02T14:33:20.356Z,36.70
2023-03-02T14:35:27.644Z,38.20
2023-03-02T14:37:32.916Z,38.10
2023-03-02T14:39:41.197Z,38.40
2023-03-02T14:41:53.298Z,38.00
2023-03-02T14:43:59.460Z,37.10
2023-03-02T14:46:05.034Z,36.40
2023-03-02T14:48:10.043Z,35.30
2023-03-02T14:50:19.409Z,34.30
2023-03-02T14:52:29.607Z,33.30
2023-03-02T14:54:43.039Z,33.70
2023-03-02T14:56:50.563Z,33.90
2023-03-02T14:58:56.708Z,33.00
2023-03-02T15:01:01.953Z,32.00
2023-03-02T15:03:07.067Z,32.00
2023-03-02T15:05:13.214Z,31.80
2023-03-02T15:07:22.646Z,33.90
2023-03-02T15:09:27.635Z,32.40
2023-03-02T15:11:33.389Z,34.50
2023-03-02T15:13:38.467Z,33.70
2023-03-02T15:15:45.697Z,33.10
2023-03-02T15:17:50.629Z,32.80
2023-03-02T15:19:56.074Z,31.70
2023-03-02T15:22:04.217Z,32.40
2023-03-02T15:24:11.919Z,33.30
2023-03-02T15:26:17.949Z,31.70
2023-03-02T15:28:22.858Z,31.70
2023-03-02T15:30:30.778Z,34.90
2023-03-02T15:32:35.890Z,32.40
2023-03-02T15:34:41.350Z,33.90
2023-03-02T15:36:46.211Z,31.40
2023-03-02T15:38:53.233Z,31.10
2023-03-02T15:41:01.038Z,32.00
2023-03-02T15:43:06.342Z,31.80
2023-03-02T15:45:12.211Z,30.20
2023-03-02T15:47:17.295Z,30.20
2023-03-02T15:49:24.531Z,29.80
2023-03-02T15:51:29.550Z,29.40
2023-03-02T15:53:38.083Z,29.90
2023-03-02T15:55:44.404Z,29.50
2023-03-02T15:57:51.988Z,29.90
2023-03-02T15:59:57.198Z,30.60
2023-03-02T16:02:02.573Z,30.20
2023-03-02T16:04:07.536Z,30.80
2023-03-02T16:06:13.448Z,31.10
2023-03-02T16:08:18.477Z,31.40
2023-03-02T16:10:27.031Z,30.60
2023-03-02T16:12:31.929Z,31.30
2023-03-02T16:14:42.096Z,31.20
2023-03-02T16:16:48.443Z,30.00
2023-03-02T16:18:54.399Z,31.60
2023-03-02T16:20:59.328Z,31.70
2023-03-02T16:23:06.197Z,32.60
2023-03-02T16:25:12.367Z,32.60
2023-03-02T16:27:17.261Z,32.50
2023-03-02T16:29:22.522Z,31.70
2023-03-02T16:31:33.193Z,32.40
2023-03-02T16:33:38.865Z,33.70
2023-03-02T16:35:43.853Z,32.90
2023-03-02T16:37:48.743Z,33.90
2023-03-02T16:39:53.691Z,34.90
2023-03-02T16:41:58.606Z,34.10
2023-03-02T16:44:03.941Z,34.70
2023-03-02T16:46:10.166Z,35.00
2023-03-02T16:48:17.760Z,35.10
2023-03-02T16:50:23.067Z,35.60
2023-03-02T16:52:29.180Z,35.20
2023-03-02T16:54:34.841Z,36.50
2023-03-02T16:56:41.307Z,37.00
2023-03-02T16:58:47.208Z,37.40
2023-03-02T17:00:52.848Z,37.30
2023-03-02T17:02:57.770Z,37.90
2023-03-02T17:05:06.312Z,38.20
2023-03-02T17:07:11.968Z,38.10
2023-03-02T17:09:17.891Z,38.30
2023-03-02T17:11:23.477Z,39.20
2023-03-02T17:13:28.669Z,39.50
2023-03-02T17:15:34.077Z,40.00
2023-03-02T17:17:39.940Z,40.80
2023-03-02T17:19:44.885Z,41.30
2023-03-02T17:21:52.389Z,41.60
2023-03-02T17:23:57.579Z,40.70
2023-03-02T17:26:02.547Z,41.50
2023-03-02T17:28:08.546Z,42.50
2023-03-02T17:30:15.779Z,42.30
2023-03-02T17:32:21.037Z,43.00
2023-03-02T17:34:28.734Z,43.30
2023-03-02T17:36:36.733Z,43.80
2023-03-02T17:38:45.040Z,44.40
2023-03-02T17:40:50.182Z,45.10
2023-03-02T17:42:57.739Z,45.20
2023-03-02T17:45:02.855Z,45.20
2023-03-02T17:47:08.387Z,46.00
2023-03-02T17:49:14.150Z,46.80
2023-03-02T17:51:20.131Z,47.00
2023-03-02T17:53:25.006Z,46.80
2023-03-02T17:55:34.421Z,47.10
2023-03-02T17:57:39.705Z,47.90
2023-03-02T17:59:45.969Z,49.60
2023-03-02T18:01:51.161Z,49.70
2023-03-02T18:03:56.779Z,50.60
2023-03-02T18:06:01.688Z,50.50
2023-03-02T18:08:07.790Z,51.40
2023-03-02T18:10:14.254Z,52.30
2023-03-02T18:12:21.943Z,52.10
2023-03-02T18:14:28.481Z,52.90
2023-03-02T18:16:35.454Z,53.40
2023-03-02T18:18:40.569Z,53.00
2023-03-02T18:20:45.488Z,53.80
2023-03-02T18:22:50.384Z,54.40
2023-03-02T18:24:55.280Z,55.40
2023-03-02T18:27:00.296Z,55.80
2023-03-02T18:29:08.374Z,56.50
2023-03-02T18:31:14.374Z,56.80
2023-03-02T18:33:19.877Z,58.50
2023-03-02T18:35:25.394Z,58.60
2023-03-02T18:37:30.899Z,59.00
2023-03-02T18:39:37.662Z,58.90
2023-03-02T18:41:43.028Z,60.70
2023-03-02T18:43:49.146Z,61.30
2023-03-02T18:45:57.647Z,60.50
2023-03-02T18:48:03.583Z,61.10
2023-03-02T18:50:10.452Z,61.70
2023-03-02T18:52:16.653Z,62.20
2023-03-02T18:54:21.835Z,62.30
2023-03-02T18:56:27.647Z,63.30
2023-03-02T18:58:34.157Z,63.70
2023-03-02T19:00:39.069Z,63.40
2023-03-02T19:02:46.557Z,64.70
2023-03-02T19:04:51.430Z,65.90
2023-03-02T19:06:57.147Z,66.50
2023-03-02T19:09:02.241Z,66.70
2023-03-02T19:11:08.707Z,66.10
2023-03-02T19:13:15.597Z,65.70
2023-03-02T19:15:20.747Z,66.40
2023-03-02T19:17:25.965Z,65.40
2023-03-02T19:19:35.406Z,66.10
2023-03-02T19:21:40.361Z,67.20
2023-03-02T19:23:46.547Z,66.90
2023-03-02T19:25:52.701Z,67.90
2023-03-02T19:27:57.681Z,68.40
2023-03-02T19:30:02.784Z,67.90
2023-03-02T19:32:11.360Z,68.50
2023-03-02T19:34:16.329Z,69.30
2023-03-02T19:36:24.076Z,68.60
2023-03-02T19:38:29.241Z,69.00
2023-03-02T19:40:34.765Z,70.30
2023-03-02T19:42:39.955Z,70.40
2023-03-02T19:44:44.838Z,70.70
2023-03-02T19:46:50.018Z,71.60
2023-03-02T19:48:54.956Z,71.40
2023-03-02T19:51:00.591Z,72.40
2023-03-02T19:53:09.966Z,72.50
2023-03-02T19:55:17.237Z,72.00
2023-03-02T19:57:22.244Z,71.70
2023-03-02T19:59:27.584Z,72.10
2023-03-02T20:01:32.793Z,71.50
2023-03-02T20:03:37.684Z,72.60
2023-03-02T20:05:43.123Z,73.50
2023-03-02T20:07:48.770Z,74.00
2023-03-02T20:09:56.415Z,76.20
2023-03-02T20:12:02.857Z,75.40
2023-03-02T20:14:07.826Z,76.40
2023-03-02T20:16:15.264Z,76.00
2023-03-02T20:18:22.880Z,76.20
2023-03-02T20:20:29.115Z,76.10
2023-03-02T20:22:35.175Z,75.70
2023-03-02T20:24:40.409Z,77.20
2023-03-02T20:26:47.935Z,76.50
2023-03-02T20:28:55.615Z,77.10
2023-03-02T20:31:04.178Z,76.20
2023-03-02T20:33:11.401Z,78.40
2023-03-02T20:35:16.435Z,78.10
2023-03-02T20:37:22.642Z,76.30
2023-03-02T20:39:32.029Z,78.20
2023-03-02T20:41:37.863Z,78.10
2023-03-02T20:43:46.237Z,78.70
2023-03-02T20:45:51.230Z,78.00
2023-03-02T20:47:57.079Z,78.80
2023-03-02T20:50:02.956Z,79.00
2023-03-02T20:52:10.445Z,79.40
2023-03-02T20:54:15.378Z,80.70
2023-03-02T20:56:21.894Z,80.10
2023-03-02T20:58:27.108Z,80.40
2023-03-02T21:00:37.514Z,80.30
2023-03-02T21:02:43.016Z,79.80
2023-03-02T21:04:48.310Z,80.80
2023-03-02T21:06:54.695Z,80.70
2023-03-02T21:09:00.168Z,81.40
2023-03-02T21:11:05.129Z,82.50
2023-03-02T21:13:11.900Z,81.40
2023-03-02T21:15:17.541Z,80.90
2023-03-02T21:17:25.730Z,82.40
2023-03-02T21:19:32.625Z,82.10
2023-03-02T21:21:41.806Z,83.10
2023-03-02T21:23:47.513Z,82.10
2023-03-02T21:25:52.423Z,82.50
2023-03-02T21:27:57.896Z,83.40
2023-03-02T21:30:04.058Z,83.20
2023-03-02T21:32:09.856Z,83.70
2023-03-02T21:34:19.005Z,83.90
2023-03-02T21:36:27.487Z,82.60
2023-03-02T21:38:32.383Z,83.60
2023-03-02T21:40:40.763Z,84.20
2023-03-02T21:42:45.824Z,85.30
2023-03-02T21:44:50.867Z,84.80
2023-03-02T21:46:55.857Z,85.10
2023-03-02T21:49:00.922Z,85.00
2023-03-02T21:51:09.169Z,84.90
2023-03-02T21:53:14.311Z,85.30
2023-03-02T21:55:20.250Z,85.20
2023-03-02T21:57:25.148Z,84.30
2023-03-02T21:59:30.674Z,85.20
2023-03-02T22:01:36.348Z,85.60
2023-03-02T22:03:41.408Z,85.90
2023-03-02T22:05:46.851Z,86.80
2023-03-02T22:07:54.551Z,86.90
2023-03-02T22:09:59.449Z,85.70
2023-03-02T22:12:04.363Z,85.80
2023-03-02T22:14:15.003Z,86.00
2023-03-02T22:16:22.947Z,86.60
2023-03-02T22:18:30.354Z,86.60
2023-03-02T22:20:35.707Z,85.90
2023-03-02T22:22:40.587Z,86.10
2023-03-02T22:24:52.160Z,87.20
2023-03-02T22:27:02.165Z,86.60
2023-03-02T22:29:16.901Z,87.90
2023-03-02T22:31:24.759Z,87.80
2023-03-02T22:33:32.131Z,87.00
2023-03-02T22:35:38.201Z,87.20
2023-03-02T22:37:43.150Z,87.20
2023-03-02T22:39:52.231Z,88.30
2023-03-02T22:42:06.322Z,87.70
2023-03-02T22:44:15.298Z,87.60
2023-03-02T22:46:22.926Z,88.80
2023-03-02T22:48:31.699Z,89.60
2023-03-02T22:50:36.859Z,88.80
2023-03-02T22:52:44.616Z,90.20
2023-03-02T22:54:52.167Z,90.60
2023-03-02T22:56:57.230Z,89.40
2023-03-02T22:59:10.164Z,89.50
2023-03-02T23:01:24.523Z,90.20
2023-03-02T23:03:40.713Z,89.70
2023-03-02T23:05:49.329Z,89.60
2023-03-02T23:07:56.167Z,89.80
2023-03-02T23:10:03.602Z,90.70
2023-03-02T23:12:18.160Z,90.90
2023-03-02T23:14:30.167Z,90.10
2023-03-02T23:16:38.655Z,89.80
2023-03-02T23:18:43.829Z,89.80
2023-03-02T23:20:49.306Z,90.30
2023-03-02T23:22:55.110Z,90.20
2023-03-02T23:25:00.037Z,89.70
2023-03-02T23:27:07.743Z,90.10
2023-03-02T23:29:13.357Z,89.80
2023-03-02T23:31:19.287Z,89.30
2023-03-02T23:33:24.364Z,89.10
2023-03-02T23:35:29.683Z,90.30
2023-03-02T23:37:34.708Z,90.30
2023-03-02T23:39:39.727Z,89.60
2023-03-02T23:41:44.863Z,90.30
2023-03-02T23:43:52.451Z,90.90
2023-03-02T23:45:57.788Z,91.30
2023-03-02T23:48:02.795Z,90.70
2023-03-02T23:50:10.662Z,91.10
2023-03-02T23:52:15.648Z,90.60
2023-03-02T23:54:20.584Z,90.70
2023-03-02T23:56:26.132Z,90.70
2023-03-02T23:58:31.076Z,91.30
